sensor_id;sensor_type;location;lat;lon;timestamp;P1;durP1;ratioP1;P2;durP2;ratioP2
23394;SDS011;11870;53.084;18.206;2024-02-21T00:01:36;23.45;;;7.22;;
23394;SDS011;11870;53.084;18.206;2024-02-21T00:04:12;19.25;;;6.72;;
23394;SDS011;11870;53.084;18.206;2024-02-21T00:06:53;24.55;;;7.40;;
23394;SDS011;11870;53.084;18.206;2024-02-21T00:09:45;21.65;;;6.45;;
23394;SDS011;11870;53.084;18.206;2024-02-21T00:12:34;24.10;;;6.57;;
23394;SDS011;11870;53.084;18.206;2024-02-21T00:15:16;21.02;;;6.82;;
23394;SDS011;11870;53.084;18.206;2024-02-21T00:17:59;23.70;;;6.32;;
23394;SDS011;11870;53.084;18.206;2024-02-21T00:20:29;25.35;;;7.15;;
23394;SDS011;11870;53.084;18.206;2024-02-21T00:22:59;19.35;;;7.10;;
23394;SDS011;11870;53.084;18.206;2024-02-21T00:25:35;22.38;;;6.63;;
23394;SDS011;11870;53.084;18.206;2024-02-21T00:28:12;22.75;;;6.70;;
23394;SDS011;11870;53.084;18.206;2024-02-21T00:30:43;15.88;;;7.15;;
23394;SDS011;11870;53.084;18.206;2024-02-21T00:36:28;18.30;;;6.80;;
23394;SDS011;11870;53.084;18.206;2024-02-21T00:39:06;23.88;;;9.50;;
23394;SDS011;11870;53.084;18.206;2024-02-21T00:41:43;20.08;;;6.72;;
23394;SDS011;11870;53.084;18.206;2024-02-21T00:44:34;23.65;;;7.30;;
23394;SDS011;11870;53.084;18.206;2024-02-21T00:47:36;24.02;;;8.18;;
23394;SDS011;11870;53.084;18.206;2024-02-21T00:50:27;24.08;;;7.00;;
23394;SDS011;11870;53.084;18.206;2024-02-21T00:53:23;21.75;;;7.45;;
23394;SDS011;11870;53.084;18.206;2024-02-21T00:55:54;20.88;;;7.88;;
23394;SDS011;11870;53.084;18.206;2024-02-21T00:58:35;23.35;;;8.23;;
23394;SDS011;11870;53.084;18.206;2024-02-21T01:01:26;25.17;;;7.38;;
23394;SDS011;11870;53.084;18.206;2024-02-21T01:04:35;25.80;;;7.28;;
23394;SDS011;11870;53.084;18.206;2024-02-21T01:07:36;17.45;;;7.32;;
23394;SDS011;11870;53.084;18.206;2024-02-21T01:10:59;22.45;;;7.53;;
23394;SDS011;11870;53.084;18.206;2024-02-21T01:14:31;25.58;;;7.20;;
23394;SDS011;11870;53.084;18.206;2024-02-21T01:17:27;29.20;;;7.63;;
23394;SDS011;11870;53.084;18.206;2024-02-21T01:23:49;25.90;;;8.00;;
23394;SDS011;11870;53.084;18.206;2024-02-21T01:29:53;29.33;;;6.95;;
23394;SDS011;11870;53.084;18.206;2024-02-21T01:33:00;23.20;;;7.38;;
23394;SDS011;11870;53.084;18.206;2024-02-21T01:38:58;37.90;;;7.93;;
23394;SDS011;11870;53.084;18.206;2024-02-21T01:42:00;23.95;;;7.53;;
23394;SDS011;11870;53.084;18.206;2024-02-21T01:48:16;22.63;;;7.95;;
23394;SDS011;11870;53.084;18.206;2024-02-21T01:51:34;28.75;;;8.20;;
23394;SDS011;11870;53.084;18.206;2024-02-21T01:54:13;30.52;;;8.68;;
23394;SDS011;11870;53.084;18.206;2024-02-21T02:02:30;33.50;;;8.32;;
23394;SDS011;11870;53.084;18.206;2024-02-21T02:05:24;24.38;;;7.10;;
23394;SDS011;11870;53.084;18.206;2024-02-21T02:08:28;19.77;;;7.13;;
23394;SDS011;11870;53.084;18.206;2024-02-21T02:11:19;29.80;;;7.82;;
23394;SDS011;11870;53.084;18.206;2024-02-21T02:14:12;23.27;;;8.38;;
23394;SDS011;11870;53.084;18.206;2024-02-21T02:26:26;26.73;;;8.25;;
23394;SDS011;11870;53.084;18.206;2024-02-21T02:33:00;37.17;;;9.18;;
23394;SDS011;11870;53.084;18.206;2024-02-21T02:35:50;31.15;;;8.35;;
23394;SDS011;11870;53.084;18.206;2024-02-21T02:41:49;39.47;;;8.75;;
23394;SDS011;11870;53.084;18.206;2024-02-21T02:48:00;32.58;;;9.45;;
23394;SDS011;11870;53.084;18.206;2024-02-21T02:54:57;30.85;;;9.30;;
23394;SDS011;11870;53.084;18.206;2024-02-21T02:58:05;37.95;;;9.57;;
23394;SDS011;11870;53.084;18.206;2024-02-21T03:00:50;29.58;;;9.68;;
23394;SDS011;11870;53.084;18.206;2024-02-21T03:03:46;36.47;;;9.85;;
23394;SDS011;11870;53.084;18.206;2024-02-21T03:06:51;36.58;;;9.80;;
23394;SDS011;11870;53.084;18.206;2024-02-21T03:12:15;29.70;;;9.30;;
23394;SDS011;11870;53.084;18.206;2024-02-21T03:15:34;29.27;;;9.80;;
23394;SDS011;11870;53.084;18.206;2024-02-21T03:18:41;31.63;;;9.48;;
23394;SDS011;11870;53.084;18.206;2024-02-21T03:24:44;30.20;;;8.68;;
23394;SDS011;11870;53.084;18.206;2024-02-21T03:27:52;28.80;;;8.73;;
23394;SDS011;11870;53.084;18.206;2024-02-21T03:31:16;31.30;;;9.63;;
23394;SDS011;11870;53.084;18.206;2024-02-21T03:34:16;32.78;;;8.90;;
23394;SDS011;11870;53.084;18.206;2024-02-21T03:37:22;31.77;;;9.23;;
23394;SDS011;11870;53.084;18.206;2024-02-21T03:43:07;35.97;;;9.70;;
23394;SDS011;11870;53.084;18.206;2024-02-21T03:45:50;33.22;;;9.38;;
23394;SDS011;11870;53.084;18.206;2024-02-21T03:49:18;26.15;;;8.55;;
23394;SDS011;11870;53.084;18.206;2024-02-21T03:52:02;41.25;;;9.15;;
23394;SDS011;11870;53.084;18.206;2024-02-21T03:54:42;28.58;;;8.98;;
23394;SDS011;11870;53.084;18.206;2024-02-21T03:57:31;30.85;;;9.07;;
23394;SDS011;11870;53.084;18.206;2024-02-21T04:02:49;41.30;;;9.70;;
23394;SDS011;11870;53.084;18.206;2024-02-21T04:05:45;40.05;;;10.40;;
23394;SDS011;11870;53.084;18.206;2024-02-21T04:08:16;40.65;;;9.73;;
23394;SDS011;11870;53.084;18.206;2024-02-21T04:10:46;21.65;;;9.40;;
23394;SDS011;11870;53.084;18.206;2024-02-21T04:14:05;34.10;;;9.32;;
23394;SDS011;11870;53.084;18.206;2024-02-21T04:20:34;32.67;;;10.65;;
23394;SDS011;11870;53.084;18.206;2024-02-21T04:23:49;29.40;;;9.43;;
23394;SDS011;11870;53.084;18.206;2024-02-21T04:27:06;31.83;;;9.35;;
23394;SDS011;11870;53.084;18.206;2024-02-21T04:29:37;30.10;;;10.40;;
23394;SDS011;11870;53.084;18.206;2024-02-21T04:32:13;31.45;;;9.73;;
23394;SDS011;11870;53.084;18.206;2024-02-21T04:35:12;33.28;;;10.10;;
23394;SDS011;11870;53.084;18.206;2024-02-21T04:37:40;28.10;;;10.32;;
23394;SDS011;11870;53.084;18.206;2024-02-21T04:40:19;27.35;;;10.57;;
23394;SDS011;11870;53.084;18.206;2024-02-21T04:43:01;32.10;;;10.45;;
23394;SDS011;11870;53.084;18.206;2024-02-21T04:45:37;31.90;;;10.15;;
23394;SDS011;11870;53.084;18.206;2024-02-21T04:48:06;30.20;;;10.15;;
23394;SDS011;11870;53.084;18.206;2024-02-21T04:50:39;38.40;;;10.50;;
23394;SDS011;11870;53.084;18.206;2024-02-21T04:53:08;28.20;;;10.13;;
23394;SDS011;11870;53.084;18.206;2024-02-21T06:39:13;30.98;;;12.18;;
23394;SDS011;11870;53.084;18.206;2024-02-21T06:45:44;47.22;;;13.00;;
23394;SDS011;11870;53.084;18.206;2024-02-21T06:48:40;33.58;;;12.38;;
23394;SDS011;11870;53.084;18.206;2024-02-21T06:51:54;35.03;;;12.35;;
23394;SDS011;11870;53.084;18.206;2024-02-21T08:07:16;36.45;;;12.25;;
23394;SDS011;11870;53.084;18.206;2024-02-21T08:10:29;31.00;;;11.10;;
23394;SDS011;11870;53.084;18.206;2024-02-21T09:02:33;23.42;;;8.88;;
23394;SDS011;11870;53.084;18.206;2024-02-21T09:05:53;28.92;;;10.20;;
23394;SDS011;11870;53.084;18.206;2024-02-21T11:20:49;20.40;;;10.25;;
23394;SDS011;11870;53.084;18.206;2024-02-21T11:27:58;21.52;;;9.68;;
23394;SDS011;11870;53.084;18.206;2024-02-21T11:31:18;20.20;;;9.30;;
23394;SDS011;11870;53.084;18.206;2024-02-21T11:44:47;20.35;;;10.07;;
23394;SDS011;11870;53.084;18.206;2024-02-21T11:51:27;22.55;;;9.35;;
23394;SDS011;11870;53.084;18.206;2024-02-21T11:54:33;20.15;;;8.75;;
23394;SDS011;11870;53.084;18.206;2024-02-21T12:01:36;17.20;;;8.63;;
23394;SDS011;11870;53.084;18.206;2024-02-21T12:07:39;16.15;;;8.68;;
23394;SDS011;11870;53.084;18.206;2024-02-21T12:14:28;23.90;;;9.18;;
23394;SDS011;11870;53.084;18.206;2024-02-21T12:18:21;16.95;;;8.52;;
23394;SDS011;11870;53.084;18.206;2024-02-21T12:21:12;18.80;;;8.55;;
23394;SDS011;11870;53.084;18.206;2024-02-21T12:24:31;18.17;;;8.02;;
23394;SDS011;11870;53.084;18.206;2024-02-21T12:27:16;18.77;;;9.02;;
23394;SDS011;11870;53.084;18.206;2024-02-21T12:30:02;20.90;;;10.25;;
23394;SDS011;11870;53.084;18.206;2024-02-21T12:33:26;14.55;;;8.38;;
23394;SDS011;11870;53.084;18.206;2024-02-21T12:39:32;18.98;;;10.35;;
23394;SDS011;11870;53.084;18.206;2024-02-21T12:42:54;24.95;;;10.82;;
23394;SDS011;11870;53.084;18.206;2024-02-21T12:45:57;19.33;;;9.50;;
23394;SDS011;11870;53.084;18.206;2024-02-21T12:52:05;17.70;;;8.68;;
23394;SDS011;11870;53.084;18.206;2024-02-21T13:01:33;22.85;;;9.65;;
23394;SDS011;11870;53.084;18.206;2024-02-21T13:04:01;25.50;;;10.75;;
23394;SDS011;11870;53.084;18.206;2024-02-21T13:06:28;15.55;;;9.52;;
23394;SDS011;11870;53.084;18.206;2024-02-21T13:09:04;20.75;;;9.00;;
23394;SDS011;11870;53.084;18.206;2024-02-21T13:11:39;20.70;;;9.63;;
23394;SDS011;11870;53.084;18.206;2024-02-21T13:14:22;18.08;;;9.50;;
23394;SDS011;11870;53.084;18.206;2024-02-21T13:16:48;18.50;;;9.27;;
23394;SDS011;11870;53.084;18.206;2024-02-21T13:19:16;19.20;;;10.07;;
23394;SDS011;11870;53.084;18.206;2024-02-21T13:21:43;16.88;;;9.52;;
23394;SDS011;11870;53.084;18.206;2024-02-21T13:24:15;16.88;;;10.02;;
23394;SDS011;11870;53.084;18.206;2024-02-21T13:26:42;14.73;;;9.07;;
23394;SDS011;11870;53.084;18.206;2024-02-21T13:29:09;18.88;;;9.75;;
23394;SDS011;11870;53.084;18.206;2024-02-21T13:31:43;20.27;;;10.13;;
23394;SDS011;11870;53.084;18.206;2024-02-21T13:34:15;23.50;;;10.30;;
23394;SDS011;11870;53.084;18.206;2024-02-21T13:36:42;21.10;;;9.77;;
23394;SDS011;11870;53.084;18.206;2024-02-21T13:39:10;19.25;;;10.15;;
23394;SDS011;11870;53.084;18.206;2024-02-21T13:41:44;21.08;;;10.18;;
23394;SDS011;11870;53.084;18.206;2024-02-21T13:44:13;18.88;;;9.75;;
23394;SDS011;11870;53.084;18.206;2024-02-21T13:46:40;19.30;;;9.70;;
23394;SDS011;11870;53.084;18.206;2024-02-21T13:49:09;21.77;;;9.73;;
23394;SDS011;11870;53.084;18.206;2024-02-21T13:51:37;21.98;;;9.98;;
23394;SDS011;11870;53.084;18.206;2024-02-21T13:54:05;18.25;;;10.02;;
23394;SDS011;11870;53.084;18.206;2024-02-21T13:56:37;17.15;;;9.57;;
23394;SDS011;11870;53.084;18.206;2024-02-21T13:59:09;19.95;;;9.98;;
23394;SDS011;11870;53.084;18.206;2024-02-21T14:01:35;19.90;;;9.48;;
23394;SDS011;11870;53.084;18.206;2024-02-21T14:04:03;18.58;;;10.70;;
23394;SDS011;11870;53.084;18.206;2024-02-21T14:06:31;21.70;;;9.70;;
23394;SDS011;11870;53.084;18.206;2024-02-21T14:09:03;20.75;;;10.43;;
23394;SDS011;11870;53.084;18.206;2024-02-21T14:11:30;20.80;;;9.88;;
23394;SDS011;11870;53.084;18.206;2024-02-21T14:13:59;23.88;;;10.27;;
23394;SDS011;11870;53.084;18.206;2024-02-21T14:16:29;21.05;;;10.77;;
23394;SDS011;11870;53.084;18.206;2024-02-21T14:18:56;20.05;;;10.02;;
23394;SDS011;11870;53.084;18.206;2024-02-21T14:21:22;21.25;;;10.38;;
23394;SDS011;11870;53.084;18.206;2024-02-21T14:23:50;25.52;;;10.55;;
23394;SDS011;11870;53.084;18.206;2024-02-21T14:26:18;20.38;;;10.68;;
23394;SDS011;11870;53.084;18.206;2024-02-21T14:28:49;22.08;;;10.18;;
23394;SDS011;11870;53.084;18.206;2024-02-21T14:31:19;20.88;;;10.18;;
23394;SDS011;11870;53.084;18.206;2024-02-21T14:33:49;20.40;;;10.40;;
23394;SDS011;11870;53.084;18.206;2024-02-21T14:36:17;26.08;;;10.32;;
23394;SDS011;11870;53.084;18.206;2024-02-21T14:38:44;20.88;;;9.52;;
23394;SDS011;11870;53.084;18.206;2024-02-21T14:41:18;19.13;;;10.13;;
23394;SDS011;11870;53.084;18.206;2024-02-21T14:43:52;19.60;;;10.18;;
23394;SDS011;11870;53.084;18.206;2024-02-21T14:46:22;24.38;;;10.57;;
23394;SDS011;11870;53.084;18.206;2024-02-21T14:48:49;20.70;;;9.57;;
23394;SDS011;11870;53.084;18.206;2024-02-21T14:51:24;25.13;;;10.40;;
23394;SDS011;11870;53.084;18.206;2024-02-21T14:53:59;18.75;;;9.93;;
23394;SDS011;11870;53.084;18.206;2024-02-21T14:56:27;21.25;;;10.15;;
23394;SDS011;11870;53.084;18.206;2024-02-21T14:58:58;20.50;;;9.82;;
23394;SDS011;11870;53.084;18.206;2024-02-21T15:01:26;22.70;;;9.60;;
23394;SDS011;11870;53.084;18.206;2024-02-21T15:03:54;18.80;;;9.05;;
23394;SDS011;11870;53.084;18.206;2024-02-21T15:06:24;17.55;;;9.68;;
23394;SDS011;11870;53.084;18.206;2024-02-21T15:08:52;21.00;;;9.80;;
23394;SDS011;11870;53.084;18.206;2024-02-21T15:11:18;18.60;;;8.75;;
23394;SDS011;11870;53.084;18.206;2024-02-21T15:13:47;25.10;;;10.20;;
23394;SDS011;11870;53.084;18.206;2024-02-21T15:16:14;21.15;;;9.85;;
23394;SDS011;11870;53.084;18.206;2024-02-21T15:18:43;19.50;;;10.18;;
23394;SDS011;11870;53.084;18.206;2024-02-21T15:21:10;18.38;;;9.25;;
23394;SDS011;11870;53.084;18.206;2024-02-21T15:23:45;22.75;;;10.18;;
23394;SDS011;11870;53.084;18.206;2024-02-21T15:26:15;18.10;;;9.70;;
23394;SDS011;11870;53.084;18.206;2024-02-21T15:28:48;20.27;;;9.95;;
23394;SDS011;11870;53.084;18.206;2024-02-21T15:31:25;19.92;;;10.50;;
23394;SDS011;11870;53.084;18.206;2024-02-21T15:33:54;21.95;;;10.30;;
23394;SDS011;11870;53.084;18.206;2024-02-21T15:36:21;23.75;;;10.10;;
23394;SDS011;11870;53.084;18.206;2024-02-21T15:38:48;20.55;;;10.23;;
23394;SDS011;11870;53.084;18.206;2024-02-21T15:41:15;22.63;;;10.75;;
23394;SDS011;11870;53.084;18.206;2024-02-21T15:43:42;26.17;;;10.18;;
23394;SDS011;11870;53.084;18.206;2024-02-21T15:46:13;20.55;;;10.80;;
23394;SDS011;11870;53.084;18.206;2024-02-21T15:48:40;23.38;;;10.63;;
23394;SDS011;11870;53.084;18.206;2024-02-21T15:51:08;19.92;;;9.57;;
23394;SDS011;11870;53.084;18.206;2024-02-21T15:53:41;23.15;;;10.65;;
23394;SDS011;11870;53.084;18.206;2024-02-21T15:56:10;21.60;;;10.60;;
23394;SDS011;11870;53.084;18.206;2024-02-21T15:59:04;23.52;;;10.82;;
23394;SDS011;11870;53.084;18.206;2024-02-21T16:01:41;24.73;;;10.60;;
23394;SDS011;11870;53.084;18.206;2024-02-21T16:04:24;26.80;;;10.80;;
23394;SDS011;11870;53.084;18.206;2024-02-21T16:07:17;25.67;;;10.63;;
23394;SDS011;11870;53.084;18.206;2024-02-21T16:10:21;28.05;;;12.05;;
23394;SDS011;11870;53.084;18.206;2024-02-21T16:13:26;26.15;;;11.63;;
23394;SDS011;11870;53.084;18.206;2024-02-21T16:16:38;26.15;;;13.20;;
23394;SDS011;11870;53.084;18.206;2024-02-21T16:19:28;27.55;;;13.75;;
23394;SDS011;11870;53.084;18.206;2024-02-21T16:22:27;37.20;;;14.95;;
23394;SDS011;11870;53.084;18.206;2024-02-21T16:25:14;30.10;;;15.05;;
23394;SDS011;11870;53.084;18.206;2024-02-21T16:28:30;30.58;;;13.95;;
23394;SDS011;11870;53.084;18.206;2024-02-21T16:30:58;31.52;;;14.05;;
23394;SDS011;11870;53.084;18.206;2024-02-21T16:33:33;32.75;;;14.02;;
23394;SDS011;11870;53.084;18.206;2024-02-21T16:36:21;31.92;;;13.75;;
23394;SDS011;11870;53.084;18.206;2024-02-21T16:39:00;31.02;;;14.60;;
23394;SDS011;11870;53.084;18.206;2024-02-21T16:41:33;32.05;;;14.63;;
23394;SDS011;11870;53.084;18.206;2024-02-21T16:44:08;34.40;;;15.00;;
23394;SDS011;11870;53.084;18.206;2024-02-21T16:46:46;34.47;;;15.20;;
23394;SDS011;11870;53.084;18.206;2024-02-21T16:49:16;35.55;;;15.35;;
23394;SDS011;11870;53.084;18.206;2024-02-21T16:51:48;32.42;;;15.40;;
23394;SDS011;11870;53.084;18.206;2024-02-21T16:54:32;32.85;;;15.43;;
23394;SDS011;11870;53.084;18.206;2024-02-21T16:57:09;35.47;;;14.50;;
23394;SDS011;11870;53.084;18.206;2024-02-21T16:59:56;30.00;;;14.00;;
23394;SDS011;11870;53.084;18.206;2024-02-21T17:02:40;32.03;;;14.55;;
23394;SDS011;11870;53.084;18.206;2024-02-21T17:05:50;32.20;;;14.55;;
